SBRJSBSC

Guest
Details From SBRJ - Santos-dumont
To SBSC - Santa Cruz
Flight Number -
Tags Routegen Generated
Created
Modified
Stats Distance 38 nm / 71 km
Max Altitude 100 ft / 30 m
Waypoints 5
Social Downloads 5
Likes 0
Share VATSIM

Download

Looking for another format? Having issues loading an existing format? Contact us
Advertisement - Login to hide

Notes

Departing runway 17 SBRJ. Arriving runway 2 SBSC.

Route

SBRJ -22.98_-043.16 -22.92_-043.42 -22.86_-043.68 SBSC

ID Type Via Altitude Latitude Longitude Leg Dist Tot Dist Heading (true) Name
O SBRJ APT - 0 ft / 0 m -22.90461˚ -43.16300˚ - 0 nm - -
-22.98_-043.16 LATLON - 100 ft / 30 m -22.97693˚ -43.16027˚ 4 nm 4 nm 178° / 178° -
-22.92_-043.42 LATLON - 100 ft / 30 m -22.91603˚ -43.42089˚ 14 nm 19 nm 284° / 284° -
-22.86_-043.68 LATLON - 100 ft / 30 m -22.85514˚ -43.68150˚ 14 nm 34 nm 284° / 284° -
O SBSC APT - 0 ft / 0 m -22.92119˚ -43.71359˚ 4 nm 38 nm 204° / 204° -

Altitude Profile

Advertisement - Login to hide

SBRJ

Details ICAO SBRJ (SDU)
Name Santos-Dumont
Region Brazil
Timezone Unknown (UTC+0.0)
Stats Elevation 11 ft / 3 m (AMSL)
Location -22.910460° -43.163133°
Runways 2
Magnetic Variation 22.825° W

METAR

SBRJ 240000Z 14002KT 9999 SCT030 BKN040 23/18 Q1023

Decode

TAF

TAF SBRJ 232030Z 2400/2412 27005KT 7000 SCT015TN19/2409Z TX21/2412Z BECMG 2406/2408 24005KT SCT010 BECMG 2409/2411 30005KT 3000 BR SCT007 BECMG 2411/2412 33005KT SCT017 RMK PFV

Decode

Departure Runways

ID Width Length Bearing (true) Bearing (mag) Surface Threshold Offset Overrun Length
02L 98 ft / 30 m 4,154 ft / 1,266 m 358.02° 20.85° Asphalt 0 ft / 0 m 80 ft / 24 m
02R 138 ft / 42 m 4,361 ft / 1,329 m 358.01° 20.84° Asphalt 0 ft / 0 m 80 ft / 24 m
20L 138 ft / 42 m 4,361 ft / 1,329 m 178.01° 200.84° Asphalt 0 ft / 0 m 80 ft / 24 m
20R 98 ft / 30 m 4,154 ft / 1,266 m 178.02° 200.85° Asphalt 0 ft / 0 m 95 ft / 29 m

SBSC

Details ICAO SBSC (STU)
Name SANTA CRUZ
Region Brazil
Timezone America/Sao_Paulo (UTC-3.0)
Stats Elevation 10 ft / 3 m (AMSL)
Location -22.932489° -43.719090°
Runways 1
Magnetic Variation 22.631° W

METAR

SBSC 240000Z 24004KT 9999 SCT015 BKN050 19/17 Q1024

Decode

TAF

TAF SBSC 232130Z 2400/2412 22005KT 8000 FEW020 BKN040 TN18/2408Z TX21/2412Z RMK PDW

Decode

Destination Runways

ID Width Length Bearing (true) Bearing (mag) Surface Threshold Offset Overrun Length
05 148 ft / 45 m 9,039 ft / 2,755 m 24.13° 46.76° Asphalt 0 ft / 0 m 1,145 ft / 349 m
23 148 ft / 45 m 9,039 ft / 2,755 m 204.12° 226.75° Asphalt 0 ft / 0 m 1,145 ft / 349 m

Popular Alternatives